Time;durP1;ratioP1;P1;durP2;ratioP2;P2;SDS_P1;SDS_P2;PMS_P1;PMS_P2;Temp;Humidity;BMP_temperature;BMP_pressure;BME280_temperature;BME280_humidity;BME280_pressure;Samples;Min_cycle;Max_cycle;Signal;HPM_P1;HPM_P2
2022/06/22 00:02:18;;;;;;;1.90;0.73;;;23.80;45.30;22.90;100999.00;;;;5049475;28;20040;-68
2022/06/22 00:05:16;;;;;;;1.67;0.63;;;24.00;45.40;22.90;100997.00;;;;5051799;28;20051;-68
2022/06/22 00:08:05;;;;;;;1.17;0.65;;;23.90;45.40;22.90;100996.00;;;;5052697;28;20528;-68
2022/06/22 00:11:07;;;;;;;3.35;0.73;;;23.90;45.40;22.90;100989.00;;;;5036226;28;20437;-68
2022/06/22 00:13:57;;;;;;;2.47;0.80;;;23.90;45.50;22.90;100986.00;;;;5055613;28;20051;-68
2022/06/22 00:16:49;;;;;;;3.15;0.73;;;23.90;45.40;22.90;100989.00;;;;5049894;28;20698;-68
2022/06/22 00:19:40;;;;;;;1.23;0.65;;;23.90;45.40;22.90;100986.00;;;;5045182;28;20159;-68
2022/06/22 00:22:26;;;;;;;2.42;0.93;;;23.90;45.40;22.90;100988.00;;;;5047475;28;20052;-68
2022/06/22 00:25:40;;;;;;;2.20;0.80;;;23.90;45.40;22.90;100985.00;;;;5040644;28;20087;-68
2022/06/22 00:28:36;;;;;;;2.25;1.02;;;23.90;45.40;22.90;100981.00;;;;5043043;28;20041;-68
2022/06/22 00:31:31;;;;;;;1.13;0.57;;;23.90;45.50;22.90;100976.00;;;;5041005;28;20033;-68
2022/06/22 00:34:19;;;;;;;0.77;0.60;;;23.90;45.60;22.90;100984.00;;;;5064931;28;20037;-68
2022/06/22 00:37:11;;;;;;;2.85;0.90;;;23.90;45.40;22.90;100978.00;;;;5063532;28;20045;-68
2022/06/22 00:40:01;;;;;;;1.38;0.70;;;23.90;45.60;22.90;100979.00;;;;5067329;28;20041;-68
2022/06/22 00:42:49;;;;;;;1.10;0.60;;;23.90;45.60;22.90;100983.00;;;;5051431;28;20048;-68
2022/06/22 00:45:36;;;;;;;1.88;0.65;;;23.90;45.50;22.90;100981.00;;;;5043322;28;20076;-68
2022/06/22 00:48:28;;;;;;;2.72;0.90;;;24.00;45.50;22.90;100976.00;;;;5039073;28;20127;-68
2022/06/22 00:51:17;;;;;;;1.83;0.73;;;23.90;45.60;22.90;100976.00;;;;5049886;28;20051;-68
2022/06/22 00:54:11;;;;;;;2.88;1.20;;;23.80;45.50;22.90;100977.00;;;;5048885;28;20067;-68
2022/06/22 00:57:14;;;;;;;1.70;0.60;;;23.90;45.60;22.90;100989.00;;;;5036211;28;20094;-68
2022/06/22 01:00:05;;;;;;;1.25;0.95;;;23.90;45.60;22.90;100990.00;;;;5051672;28;20080;-68
2022/06/22 01:02:58;;;;;;;1.77;0.80;;;23.90;45.60;22.90;100983.00;;;;5053509;28;20048;-68
2022/06/22 01:06:01;;;;;;;1.90;0.77;;;23.90;45.60;22.90;100985.00;;;;5050374;28;20118;-68
2022/06/22 01:09:28;;;;;;;1.55;0.82;;;23.80;45.60;22.80;100983.00;;;;5054595;28;20108;-68
2022/06/22 01:12:25;;;;;;;0.93;0.70;;;23.80;45.60;22.90;100988.00;;;;5055305;28;20048;-69
2022/06/22 01:15:13;;;;;;;1.15;0.82;;;23.80;45.70;22.90;100980.00;;;;5050506;28;20036;-68
2022/06/22 01:18:13;;;;;;;3.05;0.98;;;23.80;45.60;22.90;100971.00;;;;5053509;28;20052;-68
2022/06/22 01:21:20;;;;;;;2.35;0.85;;;23.80;45.70;22.80;100970.00;;;;5054207;28;20035;-68
2022/06/22 01:24:23;;;;;;;2.45;1.00;;;23.90;45.70;22.80;100977.00;;;;5068086;28;20040;-68
2022/06/22 01:27:29;;;;;;;2.38;1.00;;;23.80;45.60;22.80;100974.00;;;;5055105;28;20047;-68
2022/06/22 01:30:37;;;;;;;1.67;0.80;;;23.80;45.60;22.80;100979.00;;;;5040993;28;20123;-68
2022/06/22 01:33:39;;;;;;;1.50;0.90;;;23.80;45.60;22.80;100973.00;;;;5060728;28;20055;-68
2022/06/22 01:36:30;;;;;;;5.13;0.90;;;23.80;45.70;22.80;100978.00;;;;5060319;28;20398;-69
2022/06/22 01:39:16;;;;;;;2.33;0.95;;;23.80;45.80;22.80;100976.00;;;;5058039;28;20048;-68
2022/06/22 01:42:09;;;;;;;3.67;0.90;;;23.80;45.80;22.80;100977.00;;;;5052508;28;20386;-68
2022/06/22 01:45:09;;;;;;;2.75;1.17;;;23.80;45.70;22.80;100980.00;;;;5045682;28;20135;-68
2022/06/22 01:48:05;;;;;;;1.25;0.77;;;23.80;45.80;22.80;100981.00;;;;5049100;28;20132;-68
2022/06/22 01:50:58;;;;;;;2.50;1.02;;;23.80;45.80;22.80;100975.00;;;;5050674;28;20375;-68
2022/06/22 01:53:49;;;;;;;2.90;0.75;;;23.80;45.70;22.80;100962.00;;;;5059369;28;20047;-68
2022/06/22 01:56:39;;;;;;;1.10;1.00;;;23.80;45.70;22.80;100961.00;;;;5053419;28;20040;-68
2022/06/22 01:59:53;;;;;;;4.38;1.55;;;23.80;45.80;22.80;100965.00;;;;5073503;28;20580;-68
2022/06/22 02:03:12;;;;;;;3.05;0.80;;;23.80;45.90;22.80;100973.00;;;;5050768;28;20390;-68
2022/06/22 02:07:44;;;;;;;2.05;0.90;;;23.80;45.80;22.80;100972.00;;;;5045094;28;20044;-68
2022/06/22 02:09:10;;;;;;;1.38;0.73;;;23.70;45.80;22.80;100975.00;;;;5053270;28;20048;-68
2022/06/22 02:15:15;;;;;;;2.28;1.17;;;23.80;45.90;22.80;100964.00;;;;5055117;28;20116;-68
2022/06/22 02:18:01;;;;;;;1.58;0.80;;;23.70;45.90;22.80;100969.00;;;;5040128;28;20048;-68
2022/06/22 02:20:47;;;;;;;2.55;0.98;;;23.80;45.90;22.80;100961.00;;;;5050905;28;20496;-68
2022/06/22 02:23:34;;;;;;;0.88;0.65;;;23.70;45.90;22.80;100959.00;;;;5056359;28;20045;-68
2022/06/22 02:26:31;;;;;;;0.98;0.88;;;23.70;45.90;22.80;100953.00;;;;5055471;28;20036;-68
2022/06/22 02:29:20;;;;;;;2.08;1.02;;;23.70;45.90;22.80;100935.00;;;;5051012;28;20045;-68
2022/06/22 02:32:10;;;;;;;2.08;0.82;;;23.70;45.90;22.80;100930.00;;;;5044343;28;20490;-68
2022/06/22 02:34:56;;;;;;;3.47;1.00;;;23.70;45.90;22.80;100934.00;;;;5045925;28;20131;-68
2022/06/22 02:37:49;;;;;;;1.60;1.30;;;23.70;46.00;22.80;100941.00;;;;5051671;28;20150;-68
2022/06/22 02:44:29;;;;;;;1.42;0.90;;;23.70;46.00;22.80;100951.00;;;;5052190;28;20033;-68
2022/06/22 02:46:46;;;;;;;2.65;0.80;;;23.70;46.10;22.70;100965.00;;;;5060108;28;20041;-68
2022/06/22 02:49:33;;;;;;;1.38;0.95;;;23.70;46.00;22.80;100970.00;;;;5041374;28;20040;-68
2022/06/22 02:52:19;;;;;;;1.85;1.10;;;23.70;46.20;22.70;100969.00;;;;5044600;28;20040;-68
2022/06/22 02:55:08;;;;;;;2.83;0.80;;;23.60;46.10;22.70;100972.00;;;;5048154;28;20053;-68
2022/06/22 02:57:54;;;;;;;2.03;1.10;;;23.60;46.20;22.70;100960.00;;;;5053688;28;20040;-68
2022/06/22 03:00:40;;;;;;;1.77;0.90;;;23.60;46.20;22.70;100952.00;;;;5060857;28;20039;-68
2022/06/22 03:03:27;;;;;;;2.10;1.33;;;23.60;46.20;22.70;100963.00;;;;5055133;28;20052;-68
2022/06/22 03:06:14;;;;;;;2.70;1.10;;;23.60;46.20;22.70;100963.00;;;;5049810;28;20040;-68
2022/06/22 03:09:03;;;;;;;3.58;1.20;;;23.60;46.20;22.70;100966.00;;;;5043220;28;20060;-68
2022/06/22 03:11:52;;;;;;;1.30;0.80;;;23.60;46.30;22.70;100958.00;;;;5044995;28;20071;-68
2022/06/22 03:14:54;;;;;;;1.67;1.10;;;23.50;46.20;22.70;100948.00;;;;5037562;28;20071;-68
2022/06/22 03:17:40;;;;;;;3.22;1.05;;;23.60;46.30;22.70;100942.00;;;;5036626;28;20481;-68
2022/06/22 03:20:31;;;;;;;1.17;0.80;;;23.50;46.20;22.70;100925.00;;;;5060808;28;20053;-68
2022/06/22 03:23:47;;;;;;;1.77;1.02;;;23.50;46.20;22.70;100924.00;;;;5051097;28;20045;-67
2022/06/22 03:26:47;;;;;;;1.60;0.98;;;23.50;46.20;22.70;100915.00;;;;5063772;28;20037;-67
2022/06/22 03:29:37;;;;;;;1.25;0.88;;;23.50;46.20;22.70;100914.00;;;;5048201;28;20123;-68
2022/06/22 03:32:59;;;;;;;1.70;1.10;;;23.50;46.20;22.70;100899.00;;;;5053914;28;20041;-68
2022/06/22 03:35:47;;;;;;;1.75;1.00;;;23.50;46.30;22.60;100891.00;;;;5033954;28;20043;-68
2022/06/22 03:38:41;;;;;;;5.05;1.13;;;23.60;46.40;22.60;100895.00;;;;5055983;28;20048;-68
2022/06/22 03:41:30;;;;;;;1.50;0.88;;;23.50;46.40;22.60;100891.00;;;;5041827;28;20048;-68
2022/06/22 03:44:26;;;;;;;1.48;1.10;;;23.50;46.40;22.60;100903.00;;;;5051200;28;20552;-67
2022/06/22 03:47:51;;;;;;;2.80;1.10;;;23.50;46.30;22.60;100901.00;;;;5049863;28;20099;-68
2022/06/22 03:51:14;;;;;;;2.08;1.00;;;23.50;46.40;22.60;100898.00;;;;5061953;28;21036;-67
2022/06/22 03:54:08;;;;;;;2.33;1.02;;;23.50;46.30;22.60;100894.00;;;;5064857;28;20119;-68
2022/06/22 03:56:56;;;;;;;1.48;0.98;;;23.40;46.30;22.60;100877.00;;;;5061939;28;20041;-67
2022/06/22 03:59:44;;;;;;;1.25;1.08;;;23.40;46.40;22.60;100878.00;;;;5048407;28;20037;-67
2022/06/22 04:02:30;;;;;;;;;;;23.40;46.40;22.60;100881.00;;;;5052972;28;20037;-68
2022/06/22 04:05:20;;;;;;;1.33;1.00;;;23.50;46.40;22.50;100874.00;;;;5049600;28;19912;-67
2022/06/22 04:08:06;;;;;;;1.30;0.93;;;23.40;46.50;22.60;100862.00;;;;5035875;28;20083;-67
2022/06/22 04:11:14;;;;;;;2.25;1.08;;;23.40;46.40;22.60;100858.00;;;;5054852;28;20472;-67
2022/06/22 04:14:06;;;;;;;1.45;0.90;;;23.40;46.50;22.60;100861.00;;;;5049054;28;20090;-68
2022/06/22 04:16:58;;;;;;;3.08;1.00;;;23.40;46.50;22.60;100870.00;;;;5044229;28;20483;-68
2022/06/22 04:19:49;;;;;;;2.17;1.40;;;23.40;46.50;22.60;100871.00;;;;5051703;28;20501;-67
2022/06/22 04:22:38;;;;;;;1.35;0.90;;;23.40;46.40;22.60;100869.00;;;;5050304;28;20437;-67
2022/06/22 04:25:35;;;;;;;2.00;1.05;;;23.40;46.40;22.50;100884.00;;;;5052907;28;20474;-67
2022/06/22 04:28:21;;;;;;;1.88;1.13;;;23.40;46.50;22.50;100894.00;;;;5048217;28;20037;-68
2022/06/22 04:31:07;;;;;;;3.00;1.33;;;23.40;46.40;22.60;100900.00;;;;5044624;28;20040;-68
2022/06/22 04:33:59;;;;;;;3.42;1.13;;;23.40;46.50;22.60;100907.00;;;;5047971;28;20052;-68
2022/06/22 04:36:51;;;;;;;3.97;1.33;;;23.40;46.50;22.60;100911.00;;;;5056013;28;20151;-68
2022/06/22 04:39:41;;;;;;;1.98;1.15;;;23.40;46.50;22.50;100922.00;;;;5040452;28;20046;-68
2022/06/22 04:42:27;;;;;;;3.28;1.10;;;23.40;46.50;22.60;100923.00;;;;5051437;28;20258;-68
2022/06/22 04:45:31;;;;;;;2.20;1.10;;;23.40;46.50;22.50;100937.00;;;;5052362;28;20063;-68
2022/06/22 04:48:41;;;;;;;1.05;0.90;;;23.40;46.50;22.50;100949.00;;;;5051463;28;20055;-68
2022/06/22 04:51:32;;;;;;;1.10;1.00;;;23.40;46.50;22.50;100950.00;;;;5049649;28;20060;-68
2022/06/22 04:54:30;;;;;;;2.50;1.15;;;23.40;46.50;22.50;100948.00;;;;5057943;28;20044;-68
2022/06/22 04:57:37;;;;;;;1.50;1.10;;;23.40;46.60;22.50;100941.00;;;;5051553;28;20041;-68
2022/06/22 05:00:28;;;;;;;2.58;1.00;;;23.40;47.30;22.50;100939.00;;;;5054382;28;20289;-68
2022/06/22 05:03:14;;;;;;;1.42;1.20;;;23.40;46.50;22.50;100940.00;;;;5057715;28;20049;-68
2022/06/22 05:06:06;;;;;;;2.85;1.10;;;23.40;46.40;22.50;100959.00;;;;5044518;28;20051;-68
2022/06/22 05:08:59;;;;;;;1.10;0.80;;;23.40;46.50;22.50;100962.00;;;;5059540;28;20048;-68
2022/06/22 05:11:47;;;;;;;1.60;1.10;;;23.40;46.50;22.60;100971.00;;;;5051332;28;20571;-68
2022/06/22 05:14:33;;;;;;;1.52;1.08;;;23.40;47.20;22.60;100970.00;;;;5049017;28;20036;-68
2022/06/22 05:17:37;;;;;;;1.50;1.08;;;23.40;46.40;22.60;100974.00;;;;5053713;28;20041;-68
2022/06/22 05:20:30;;;;;;;2.95;1.30;;;23.40;46.50;22.60;100971.00;;;;5064439;28;20477;-68
2022/06/22 05:23:18;;;;;;;3.35;1.02;;;23.40;46.40;22.60;100974.00;;;;5064793;28;20071;-68
2022/06/22 05:26:06;;;;;;;1.40;1.20;;;23.40;46.50;22.60;100976.00;;;;5041100;28;20036;-68
2022/06/22 05:29:16;;;;;;;1.45;1.10;;;23.40;46.60;22.60;100961.00;;;;5049540;28;20048;-68
2022/06/22 05:32:07;;;;;;;1.75;1.33;;;23.40;46.50;22.60;100973.00;;;;5052399;28;20336;-68
2022/06/22 05:34:54;;;;;;;1.02;0.93;;;23.40;46.50;22.60;100971.00;;;;5064484;28;20037;-68
2022/06/22 05:37:44;;;;;;;2.17;1.15;;;23.40;46.40;22.60;100955.00;;;;5051031;28;20048;-68
2022/06/22 05:40:30;;;;;;;1.45;1.00;;;23.50;46.50;22.60;100965.00;;;;5060104;28;20059;-68
2022/06/22 05:43:17;;;;;;;1.27;1.02;;;23.50;46.60;22.60;100954.00;;;;5047119;28;20098;-73
2022/06/22 05:46:05;;;;;;;9.30;1.30;;;23.50;46.50;22.60;100949.00;;;;5040088;28;20060;-75
2022/06/22 05:48:51;;;;;;;4.57;1.13;;;23.50;46.40;22.60;100965.00;;;;5049186;28;20591;-74
2022/06/22 05:51:49;;;;;;;5.40;1.70;;;23.50;46.40;22.60;100967.00;;;;5048009;28;20232;-74
2022/06/22 05:54:40;;;;;;;6.25;1.27;;;23.50;46.30;22.60;100954.00;;;;5056944;28;20250;-74
2022/06/22 05:57:39;;;;;;;4.50;1.42;;;23.50;46.30;22.60;100958.00;;;;5056672;28;20245;-74
2022/06/22 06:00:35;;;;;;;4.85;1.42;;;23.50;46.30;22.60;100960.00;;;;5065335;28;20040;-74
2022/06/22 06:03:43;;;;;;;7.72;1.63;;;23.50;46.30;22.60;100963.00;;;;5060303;28;20043;-74
2022/06/22 06:06:35;;;;;;;1.77;0.90;;;23.50;46.30;22.60;100973.00;;;;5047966;28;20128;-74
2022/06/22 06:09:23;;;;;;;3.90;1.30;;;23.50;46.30;22.60;100970.00;;;;5068651;28;20047;-75
2022/06/22 06:12:18;;;;;;;2.45;1.13;;;23.50;46.10;22.60;100961.00;;;;5071747;28;20033;-74
2022/06/22 06:15:04;;;;;;;8.52;1.23;;;23.50;46.10;22.60;100973.00;;;;5046348;28;20052;-74
2022/06/22 06:17:53;;;;;;;2.15;1.17;;;23.50;46.10;22.60;100955.00;;;;5053029;28;20051;-74
2022/06/22 06:20:41;;;;;;;1.02;0.82;;;23.50;46.10;22.60;100972.00;;;;5052455;28;20040;-74
2022/06/22 06:23:53;;;;;;;2.25;0.82;;;23.50;45.90;22.60;100966.00;;;;5055640;28;20047;-74
2022/06/22 06:30:58;;;;;;;2.65;0.95;;;23.50;45.90;22.60;100955.00;;;;5045497;28;20151;-74
2022/06/22 06:33:44;;;;;;;3.42;1.00;;;23.60;46.00;22.60;100962.00;;;;5062691;28;20115;-74
2022/06/22 06:36:37;;;;;;;1.38;0.90;;;23.50;45.80;22.60;100960.00;;;;5065121;28;20052;-74
2022/06/22 06:39:25;;;;;;;3.45;0.95;;;23.60;45.90;22.60;100972.00;;;;5048967;28;20044;-74
2022/06/22 06:42:29;;;;;;;;;;;23.60;45.90;22.60;100978.00;;;;5047482;28;20055;-74
2022/06/22 06:45:17;;;;;;;1.63;1.00;;;23.60;46.00;22.60;100985.00;;;;5061284;28;20649;-74
2022/06/22 06:48:08;;;;;;;1.20;0.90;;;23.60;45.80;22.60;100981.00;;;;5050615;28;20054;-74
2022/06/22 06:50:59;;;;;;;4.15;0.90;;;23.60;45.90;22.60;100991.00;;;;5044855;28;20111;-74
2022/06/22 06:54:06;;;;;;;1.55;0.70;;;23.60;45.90;22.60;100985.00;;;;5040394;28;20033;-74
2022/06/22 06:57:05;;;;;;;1.60;1.00;;;23.60;45.90;22.60;100974.00;;;;5051370;28;20076;-74
2022/06/22 07:00:51;;;;;;;2.08;0.75;;;23.60;45.90;22.60;100973.00;;;;5043547;28;20040;-74
2022/06/22 07:03:40;;;;;;;1.42;0.90;;;23.60;45.80;22.60;100970.00;;;;5064060;28;20082;-74
2022/06/22 07:06:26;;;;;;;1.07;0.83;;;23.60;45.80;22.60;100975.00;;;;5060595;28;20075;-74
2022/06/22 07:09:26;;;;;;;1.67;0.80;;;23.60;45.80;22.60;100977.00;;;;5062267;28;20772;-74
2022/06/22 07:12:28;;;;;;;1.15;0.80;;;23.60;45.90;22.60;100982.00;;;;5054148;28;20383;-74
2022/06/22 07:15:21;;;;;;;1.23;0.90;;;23.70;45.90;22.60;100975.00;;;;5045828;28;20557;-74
2022/06/22 07:18:33;;;;;;;1.35;0.73;;;23.60;45.80;22.70;100983.00;;;;5041179;28;20055;-74
2022/06/22 07:21:45;;;;;;;1.02;0.73;;;23.60;45.80;22.70;100984.00;;;;5060570;28;20440;-74
2022/06/22 07:24:40;;;;;;;2.33;0.65;;;23.60;45.80;22.60;100992.00;;;;5065032;28;20186;-74
2022/06/22 07:27:38;;;;;;;1.67;0.60;;;23.60;45.80;22.60;100984.00;;;;5050491;28;20048;-74
2022/06/22 07:30:45;;;;;;;2.55;0.80;;;23.70;45.80;22.70;100988.00;;;;5052171;28;20488;-74
2022/06/22 07:33:48;;;;;;;3.38;0.80;;;23.70;45.80;22.60;100984.00;;;;5051359;28;20036;-74
2022/06/22 07:36:37;;;;;;;2.50;0.65;;;23.70;45.80;22.70;100986.00;;;;5047383;28;20040;-74
2022/06/22 07:39:42;;;;;;;1.05;0.60;;;23.60;45.80;22.70;100985.00;;;;5056745;28;20040;-73
2022/06/22 07:42:28;;;;;;;1.00;0.68;;;23.60;45.70;22.70;100983.00;;;;5046534;28;20507;-74
2022/06/22 07:45:17;;;;;;;3.85;1.58;;;23.70;45.80;22.70;100976.00;;;;5058775;28;20029;-74
2022/06/22 07:48:16;;;;;;;1.20;0.80;;;23.70;45.90;22.70;100969.00;;;;5050904;28;20079;-74
2022/06/22 07:51:05;;;;;;;4.10;1.00;;;23.60;45.80;22.70;100979.00;;;;5048151;28;20139;-74
2022/06/22 07:54:14;;;;;;;2.25;0.65;;;23.60;45.90;22.70;100985.00;;;;5036155;28;20037;-74
2022/06/22 07:57:22;;;;;;;2.10;0.70;;;23.60;45.80;22.70;100978.00;;;;5036083;28;20040;-74
2022/06/22 08:00:18;;;;;;;1.77;0.70;;;23.70;45.90;22.70;100985.00;;;;5062973;28;20301;-74
2022/06/22 08:03:25;;;;;;;1.23;0.70;;;23.70;45.90;22.70;100984.00;;;;5034217;28;20040;-74
2022/06/22 08:06:21;;;;;;;3.40;0.73;;;23.70;46.00;22.70;100985.00;;;;5046029;28;20049;-74
2022/06/22 08:09:23;;;;;;;2.20;0.70;;;23.70;45.80;22.70;100980.00;;;;5047985;28;20040;-74
2022/06/22 08:12:47;;;;;;;0.68;0.60;;;23.70;45.90;22.70;100976.00;;;;5056676;28;20045;-75
2022/06/22 08:15:59;;;;;;;1.25;0.55;;;23.70;45.80;22.70;100965.00;;;;5063622;28;20037;-74
2022/06/22 08:18:45;;;;;;;1.30;0.85;;;23.70;45.80;22.70;100967.00;;;;5056361;28;20040;-74
2022/06/22 08:21:31;;;;;;;4.07;0.80;;;23.70;45.80;22.70;100973.00;;;;5047164;28;20052;-74
2022/06/22 08:24:18;;;;;;;1.45;0.88;;;23.70;45.80;22.70;100963.00;;;;5055408;28;20091;-74
2022/06/22 08:27:04;;;;;;;2.05;0.50;;;23.70;45.70;22.70;100951.00;;;;5056806;28;20351;-74
2022/06/22 08:29:50;;;;;;;3.63;0.90;;;23.70;45.70;22.70;100947.00;;;;5041999;28;20044;-74
2022/06/22 08:33:00;;;;;;;1.58;0.88;;;23.70;45.80;22.70;100950.00;;;;5037940;28;20081;-74
2022/06/22 08:35:52;;;;;;;1.02;0.68;;;23.70;45.70;22.70;100947.00;;;;5047035;28;20143;-74
2022/06/22 08:38:58;;;;;;;2.00;1.00;;;23.70;45.70;22.70;100945.00;;;;5053974;28;20044;-74
2022/06/22 08:42:05;;;;;;;0.95;0.60;;;23.70;45.80;22.70;100953.00;;;;5062806;28;20508;-74
2022/06/22 08:45:19;;;;;;;1.17;0.73;;;23.70;45.90;22.70;100941.00;;;;5062941;28;20048;-74
2022/06/22 08:48:36;;;;;;;5.25;0.90;;;23.70;45.80;22.70;100941.00;;;;5069773;28;20547;-74
2022/06/22 08:52:00;;;;;;;2.05;0.90;;;23.70;45.80;22.70;100948.00;;;;5070326;28;20122;-74
2022/06/22 08:55:11;;;;;;;3.25;0.93;;;23.70;45.80;22.60;100950.00;;;;5047229;28;20486;-74
2022/06/22 08:58:37;;;;;;;2.45;1.20;;;23.70;45.80;22.60;100949.00;;;;5060453;28;20468;-74
2022/06/22 09:01:39;;;;;;;3.05;0.98;;;23.70;45.70;22.60;100944.00;;;;5069159;28;20041;-74
2022/06/22 09:04:44;;;;;;;1.05;0.77;;;23.70;45.70;22.60;100951.00;;;;5054160;28;20037;-74
2022/06/22 09:07:56;;;;;;;1.92;0.70;;;23.70;45.70;22.60;100953.00;;;;5058904;28;20070;-74
2022/06/22 09:11:31;;;;;;;0.82;0.70;;;23.70;45.70;22.60;100957.00;;;;5046641;28;20072;-74
2022/06/22 09:14:27;;;;;;;2.08;0.80;;;23.70;45.80;22.60;100957.00;;;;5063003;28;20055;-74
2022/06/22 09:17:30;;;;;;;1.55;0.82;;;23.70;45.80;22.60;100959.00;;;;5053584;28;20063;-74
2022/06/22 09:21:02;;;;;;;2.13;1.00;;;23.70;45.90;22.70;100976.00;;;;5049916;28;20086;-74
2022/06/22 09:24:19;;;;;;;1.10;0.88;;;23.70;45.80;22.60;100971.00;;;;5037904;28;20485;-74
2022/06/22 09:27:44;;;;;;;1.52;0.77;;;23.70;45.90;22.60;100985.00;;;;5060199;28;20388;-74
2022/06/22 09:31:08;;;;;;;3.92;0.88;;;23.70;45.90;22.60;100977.00;;;;5050573;28;20082;-74
2022/06/22 09:34:38;;;;;;;2.10;0.80;;;23.70;45.80;22.60;100979.00;;;;5054359;28;20155;-74
2022/06/22 09:37:37;;;;;;;;;;;23.70;45.80;22.60;100982.00;;;;5055570;28;20036;-74
2022/06/22 09:40:32;;;;;;;0.98;0.80;;;23.70;45.90;22.60;100969.00;;;;5061170;28;19916;-74
2022/06/22 09:43:51;;;;;;;2.05;0.90;;;23.70;45.80;22.70;100966.00;;;;5047898;28;20765;-74
2022/06/22 09:47:20;;;;;;;1.35;0.80;;;23.70;45.70;22.70;100976.00;;;;5032937;28;20051;-74
2022/06/22 09:50:19;;;;;;;1.63;1.10;;;23.70;45.70;22.60;100976.00;;;;5053761;28;20067;-74
2022/06/22 09:53:30;;;;;;;2.13;1.00;;;23.70;45.70;22.60;100973.00;;;;5059759;28;20076;-74
2022/06/22 09:56:41;;;;;;;3.15;0.88;;;23.70;45.70;22.60;100976.00;;;;5064938;28;20042;-74
2022/06/22 09:59:54;;;;;;;1.90;0.88;;;23.70;45.70;22.70;100981.00;;;;5055444;28;20052;-74
2022/06/22 10:03:16;;;;;;;2.65;0.80;;;23.70;45.70;22.70;100982.00;;;;5066872;28;20093;-74
2022/06/22 10:06:29;;;;;;;1.30;0.63;;;23.70;45.70;22.70;100975.00;;;;5052927;28;20059;-74
2022/06/22 10:09:43;;;;;;;2.20;1.10;;;23.70;45.80;22.70;100983.00;;;;5065865;28;20123;-74
2022/06/22 10:13:02;;;;;;;1.00;0.73;;;23.70;45.70;22.70;100985.00;;;;5065423;28;20389;-75
2022/06/22 10:16:15;;;;;;;2.25;0.98;;;23.70;45.80;22.60;100983.00;;;;5062601;28;20028;-74
2022/06/22 10:19:49;;;;;;;1.15;0.80;;;23.70;46.40;22.60;100987.00;;;;5068711;28;20453;-74
2022/06/22 10:22:46;;;;;;;1.17;0.80;;;23.70;45.70;22.70;100976.00;;;;5060251;28;20032;-74
2022/06/22 10:25:38;;;;;;;2.50;0.93;;;23.70;45.60;22.70;100978.00;;;;5058520;28;20091;-74
2022/06/22 10:28:55;;;;;;;1.42;0.77;;;23.70;45.50;22.70;100967.00;;;;5069098;28;20113;-74
2022/06/22 10:32:11;;;;;;;1.00;0.80;;;23.70;45.50;22.70;100972.00;;;;5055727;28;20070;-74
2022/06/22 10:35:12;;;;;;;1.30;0.63;;;23.70;45.50;22.70;100969.00;;;;5072969;28;20048;-74
2022/06/22 10:38:26;;;;;;;2.05;0.80;;;23.70;45.50;22.70;100965.00;;;;5062076;28;20146;-74
2022/06/22 10:45:13;;;;;;;1.15;0.82;;;23.70;45.40;22.70;100963.00;;;;5066340;28;20105;-74
2022/06/22 10:48:11;;;;;;;1.45;0.85;;;23.80;45.50;22.70;100955.00;;;;5067000;28;20040;-74
2022/06/22 10:51:15;;;;;;;1.98;0.98;;;23.80;45.40;22.70;100957.00;;;;5062501;28;20051;-74
2022/06/22 10:54:27;;;;;;;4.53;1.30;;;23.80;45.50;22.70;100968.00;;;;5039464;28;20386;-74
2022/06/22 10:57:53;;;;;;;2.38;0.80;;;23.80;45.50;22.70;100957.00;;;;5052956;28;20048;-75
2022/06/22 11:01:02;;;;;;;3.90;0.80;;;23.80;45.40;22.70;100960.00;;;;5069161;28;20210;-74
2022/06/22 11:04:35;;;;;;;2.40;0.98;;;23.80;45.40;22.70;100964.00;;;;5051595;28;20097;-74
2022/06/22 11:07:42;;;;;;;1.77;0.90;;;23.80;45.40;22.70;100952.00;;;;5061584;28;20418;-74
2022/06/22 11:10:50;;;;;;;1.85;0.70;;;23.80;45.20;22.70;100960.00;;;;5070875;28;20410;-74
2022/06/22 11:14:18;;;;;;;1.20;0.80;;;23.80;45.20;22.70;100961.00;;;;5061400;28;20040;-74
2022/06/22 11:17:40;;;;;;;2.17;0.80;;;23.80;45.20;22.70;100954.00;;;;5066781;28;20059;-74
2022/06/22 11:21:20;;;;;;;2.60;0.77;;;23.80;45.10;22.70;100942.00;;;;5043236;28;20111;-74
2022/06/22 11:24:51;;;;;;;1.60;0.70;;;23.80;45.20;22.70;100939.00;;;;5000358;28;20109;-74
2022/06/22 11:31:11;;;;;;;2.00;1.05;;;23.80;45.10;22.70;100938.00;;;;5058190;28;20048;-74
2022/06/22 11:34:34;;;;;;;1.10;0.80;;;23.80;45.00;22.70;100937.00;;;;5055921;28;20040;-74
2022/06/22 11:37:42;;;;;;;1.60;0.80;;;23.80;45.00;22.70;100932.00;;;;5065511;28;20143;-74
2022/06/22 11:40:51;;;;;;;1.23;0.75;;;23.80;44.90;22.70;100922.00;;;;5067374;28;20620;-75
2022/06/22 11:44:08;;;;;;;;;;;23.90;44.90;22.70;100922.00;;;;5065815;28;20087;-73
2022/06/22 11:46:56;;;;;;;1.15;0.68;;;23.90;45.20;22.70;100927.00;;;;5060067;28;19912;-73
2022/06/22 11:50:19;;;;;;;1.88;0.85;;;23.80;44.70;22.70;100919.00;;;;5037393;28;20044;-73
2022/06/22 11:53:18;;;;;;;1.98;0.88;;;23.90;44.60;22.70;100917.00;;;;5056590;28;20056;-73
2022/06/22 11:56:44;;;;;;;1.98;1.08;;;23.90;44.60;22.70;100912.00;;;;5069573;28;20048;-73
2022/06/22 12:00:02;;;;;;;2.80;0.70;;;23.90;44.60;22.70;100915.00;;;;5068724;28;20173;-73
2022/06/22 12:03:19;;;;;;;4.10;0.90;;;23.90;44.50;22.70;100911.00;;;;5055880;28;20051;-73
2022/06/22 12:06:35;;;;;;;1.85;0.70;;;23.90;44.40;22.70;100917.00;;;;5054105;28;20092;-73
2022/06/22 12:09:56;;;;;;;1.83;0.93;;;23.90;44.30;22.80;100908.00;;;;5066098;28;20405;-73
2022/06/22 12:12:46;;;;;;;1.63;0.88;;;23.90;44.30;22.80;100901.00;;;;5053885;28;20509;-73
2022/06/22 12:16:02;;;;;;;3.47;1.10;;;24.00;44.40;22.80;100896.00;;;;5060913;28;20530;-73
2022/06/22 12:19:08;;;;;;;2.60;0.90;;;24.00;44.20;22.80;100902.00;;;;5065232;28;20422;-73
2022/06/22 12:21:57;;;;;;;0.73;0.60;;;24.00;44.30;22.80;100905.00;;;;5051470;28;20094;-73
2022/06/22 12:25:27;;;;;;;0.98;0.88;;;23.90;44.20;22.80;100906.00;;;;5063746;28;20102;-73
2022/06/22 12:28:22;;;;;;;0.88;0.73;;;23.90;44.30;22.80;100889.00;;;;5047594;28;20608;-73
2022/06/22 12:31:16;;;;;;;1.90;0.88;;;24.00;44.30;22.80;100886.00;;;;5063575;28;20072;-73
2022/06/22 12:34:41;;;;;;;1.27;0.60;;;24.00;44.30;22.80;100888.00;;;;5053354;28;20040;-72
2022/06/22 12:37:30;;;;;;;1.23;0.70;;;24.00;44.20;22.80;100891.00;;;;5057839;28;20033;-72
2022/06/22 12:40:48;;;;;;;1.08;0.60;;;24.00;44.10;22.80;100890.00;;;;5050117;28;20064;-72
2022/06/22 12:44:39;;;;;;;1.65;0.70;;;24.00;44.10;22.80;100886.00;;;;5052104;28;20050;-73
2022/06/22 12:47:54;;;;;;;1.15;0.80;;;24.00;44.20;22.80;100884.00;;;;5037371;28;20055;-72
2022/06/22 12:51:16;;;;;;;1.17;0.52;;;24.00;44.00;22.80;100870.00;;;;5054235;28;20040;-73
2022/06/22 12:54:38;;;;;;;1.13;0.60;;;24.00;44.10;22.80;100873.00;;;;5053052;28;20044;-72
2022/06/22 12:57:53;;;;;;;1.30;0.65;;;24.00;44.10;22.80;100872.00;;;;5063209;28;20494;-73
2022/06/22 13:00:41;;;;;;;1.10;0.65;;;24.00;44.20;22.80;100861.00;;;;5059712;28;20048;-73
2022/06/22 13:03:33;;;;;;;1.92;0.80;;;24.00;44.30;22.80;100857.00;;;;5053107;28;20394;-73
2022/06/22 13:06:19;;;;;;;1.25;0.80;;;24.00;44.10;22.80;100864.00;;;;5058835;28;20071;-73
2022/06/22 13:09:05;;;;;;;1.17;0.75;;;24.00;44.10;22.90;100867.00;;;;5056117;28;20052;-74
2022/06/22 13:11:51;;;;;;;1.25;0.80;;;23.90;44.10;22.90;100856.00;;;;5053273;28;20040;-74
2022/06/22 13:15:00;;;;;;;1.83;0.88;;;24.00;44.00;22.90;100854.00;;;;5058611;28;20162;-74
2022/06/22 13:17:57;;;;;;;3.30;0.73;;;24.00;43.90;22.90;100844.00;;;;5054863;28;20048;-75
2022/06/22 13:21:09;;;;;;;0.75;0.60;;;24.00;43.90;22.90;100844.00;;;;5055240;28;20048;-76
2022/06/22 13:24:29;;;;;;;1.42;0.80;;;24.00;43.90;22.90;100830.00;;;;5054380;28;20154;-76
2022/06/22 13:27:37;;;;;;;;;;;24.00;44.10;22.80;100834.00;;;;5069114;28;20101;-75
2022/06/22 13:30:42;;;;;;;0.73;0.65;;;24.10;44.40;22.90;100838.00;;;;5048957;28;19923;-75
2022/06/22 13:34:05;;;;;;;1.00;0.77;;;24.00;43.90;22.90;100833.00;;;;5051389;28;20492;-76